Salt Lake City, Utah
Traffic Map
Current Weather Conditions
Salt Lake City, Utah
Few Clouds
Few Clouds
47°
Feels Like: 45°
Wind Chill: 45° Ceiling: Unl
Heat Index: 47° Visibility: 10mi
Dew Point: 31° Wind: 5mph
Humidity: 54% Direction: 160° (SSE)
Pressure: 30.21in Gusts: 0mph
Raw Report DataKSLC 300454Z 16004KT 10SM FEW180 08/M01 A3021 RMK AO2 SLP218 T00831006
Traffic Incident Summary
Active as of:
Severity:
Category:
InformationThere was an issue retrieving the traffic information for this location. Please try a different location or try again shortly.
Advertisements
Track Severe Weather on mobile